Terminal Aerodrome Forecast
Issued by NWS Cleveland, OH

Home | Current Version | Previous Version | Text Only | Print | Product List | Glossary On
Versions: 1 2 3 4 5 6 7 8 9 10 11 12 13 14 15 16 17 18
000
FTUS41 KCLE 300500
TAFTOL
TAF
KTOL 300520Z 3006/3106 00000KT P6SM BKN250
     FM300800 18008KT P6SM OVC250
     FM301400 22014G22KT P6SM SCT060 OVC120
     FM301800 22014G22KT P6SM VCTS BKN060CB
     FM310000 23012KT P6SM OVC100
     FM310400 23009KT 6SM -TSRA OVC035CB=

USA.gov is the U.S. government's official web portal to all federal, state and local government web resources and services.